KEED/EED METAR and TAF weather

Enter ICAO airport designator
Station Type Date Time Source
KEED METAR 2018/04/19 12:56 UTC NOAA

KEED 191256Z AUTO 18005KT 10SM CLR 18/M05 A2978 RMK AO2 SLP060 T01831050


Station Type Date Time Source
KEED Decoded METAR 2018/04/19 12:56 UTC NOAA

NEEDLES AIRPORT, CA, United States (KEED) 34-46N 114-37W
Apr 19, 2018 - 08:56 AM EDT / 2018.04.19 1256 UTC
Wind: from the S (180 degrees) at 6 MPH (5 KT):0
Visibility: 10 mile(s):0
Sky conditions: clear
Temperature: 64.9 F (18.3 C)
Dew Point: 23.0 F (-5.0 C)
Relative Humidity: 20%
Pressure (altimeter): 29.78 in. Hg (1008 hPa)
ob: KEED 191256Z AUTO 18005KT 10SM CLR 18/M05 A2978 RMK AO2 SLP060 T01831050
cycle: 13

Station Type Date Time Source
KEED TAF 2018/04/19 12:22 UTC NOAA

TAF KEED 191120Z 1912/2012 22011KT P6SM BKN250
FM191600 25015G25KT P6SM SCT250
FM200300 28011KT P6SM SCT100


Example: see airport list